PWSweather.com
Personal Weather Stations
Station Observations

WarszawaPL

Lat: 52.262083, Lon: 21.0228161

Elevation: 292

Station Type: Vellman WS1080

http://meteostacja.waw.pl/

Latest ConditionsUpdated 8:30:00 PM GMT+01:01 Tuesday, Sep 25, 2018
Currently Today's Max Today's Min Today's Average
Temperature 47.7°F8.7°C 61.0°F16.1°C 42.1°F5.6°C 49.1°F9.5°C
Dew Point 31.8°F-0.1°C 41.3°F5.2°C 28.8°F-1.8°C 36.3°F2.4°C
Winds 1.6 mph N2.6 kmh N 7.6 mph -12.2 kmh - - 3.7 mph 6.0 kmh
Wind Gusts 3.8 mph6.1 kmh 13.0 mph20.9 kmh - -
Humidity 54% 89% 31% 64%
Pressure 30.57 in1035.2 mb 30.57 in1035.2 mb 30.20 in1022.7 mb -
Precipitation - 0.01 in0.3 mm - -
Hour Temp Dew Point Humidity Winds Wind Gusts Pressure Precip Precip Rate Daily Precip Total
08:30 PM 47.7°F8.7°C 31.8°F-0.1°C 54% 1.6 mph N2.6 kmh N 3.8 mph6.1 kmh 30.57 in1035.2 mb 0.00 in0.0 mm 0.00 in0.0 mm 0.01 in0.3 mm
08:00 PM 48.4°F9.1°C 31.6°F-0.2°C 52% 1.6 mph NNE2.6 kmh NNE 3.1 mph5.0 kmh 30.56 in1034.9 mb 0.00 in0.0 mm 0.00 in0.0 mm 0.01 in0.3 mm
07:30 PM 49.1°F9.5°C 32.2°F0.1°C 52% 0.7 mph N1.1 kmh N 4.5 mph7.2 kmh 30.55 in1034.5 mb 0.00 in0.0 mm 0.00 in0.0 mm 0.01 in0.3 mm
07:00 PM 49.8°F9.9°C 32.4°F0.2°C 51% 0.7 mph NE1.1 kmh NE 3.1 mph5.0 kmh 30.54 in1034.2 mb 0.00 in0.0 mm 0.00 in0.0 mm 0.01 in0.3 mm
06:30 PM 50.4°F10.2°C 32.4°F0.2°C 50% 0.7 mph NE1.1 kmh NE 3.8 mph6.1 kmh 30.53 in1033.9 mb 0.00 in0.0 mm 0.00 in0.0 mm 0.01 in0.3 mm
06:00 PM 51.8°F11.0°C 32.2°F0.1°C 47% 1.6 mph N2.6 kmh N 5.4 mph8.7 kmh 30.51 in1033.2 mb 0.00 in0.0 mm 0.00 in0.0 mm 0.01 in0.3 mm
05:30 PM 54.0°F12.2°C 31.4°F-0.3°C 42% 3.1 mph NNE5.0 kmh NNE 4.5 mph7.2 kmh 30.50 in1032.8 mb 0.00 in0.0 mm 0.00 in0.0 mm 0.01 in0.3 mm
05:00 PM 57.7°F14.3°C 28.8°F-1.8°C 33% 2.2 mph NE3.5 kmh NE 6.9 mph11.1 kmh 30.48 in1032.2 mb 0.00 in0.0 mm 0.00 in0.0 mm 0.01 in0.3 mm
04:30 PM 61.0°F16.1°C 30.2°F-1.0°C 31% 2.2 mph NNE3.5 kmh NNE 6.9 mph11.1 kmh 30.47 in1031.8 mb 0.00 in0.0 mm 0.00 in0.0 mm 0.01 in0.3 mm
04:00 PM 60.3°F15.7°C 30.3°F-0.9°C 32% 3.8 mph N6.1 kmh N 8.3 mph13.4 kmh 30.46 in1031.5 mb 0.00 in0.0 mm 0.00 in0.0 mm 0.01 in0.3 mm
03:30 PM 59.5°F15.3°C 33.9°F1.1°C 38% 3.8 mph N6.1 kmh N 9.8 mph15.8 kmh 30.46 in1031.5 mb 0.01 in0.3 mm 0.00 in0.0 mm 0.01 in0.3 mm
03:00 PM 59.0°F15.0°C 34.7°F1.5°C 40% 4.5 mph NW7.2 kmh NW 8.3 mph13.4 kmh 30.45 in1031.2 mb 0.01 in0.3 mm 0.02 in0.5 mm 0.01 in0.3 mm
02:30 PM 52.9°F11.6°C 36.2°F2.3°C 53% 4.5 mph E7.2 kmh E 6.9 mph11.1 kmh 30.46 in1031.5 mb 0.00 in0.0 mm 0.00 in0.0 mm 0.00 in0.0 mm
02:00 PM 52.3°F11.3°C 36.2°F2.3°C 54% 2.2 mph E3.5 kmh E 9.2 mph14.8 kmh 30.46 in1031.5 mb 0.00 in0.0 mm 0.00 in0.0 mm 0.00 in0.0 mm
01:30 PM 53.6°F12.0°C 35.4°F1.9°C 50% 3.8 mph NE6.1 kmh NE 6.0 mph9.7 kmh 30.45 in1031.2 mb 0.00 in0.0 mm 0.00 in0.0 mm 0.00 in0.0 mm
01:00 PM 54.3°F12.4°C 35.1°F1.7°C 48% 3.8 mph NNW6.1 kmh NNW 13.0 mph20.9 kmh 30.44 in1030.8 mb 0.00 in0.0 mm 0.00 in0.0 mm 0.00 in0.0 mm
12:30 PM 52.9°F11.6°C 36.2°F2.3°C 53% 3.1 mph N5.0 kmh N 6.0 mph9.7 kmh 30.44 in1030.8 mb 0.00 in0.0 mm 0.00 in0.0 mm 0.00 in0.0 mm
12:00 PM 52.7°F11.5°C 36.1°F2.3°C 53% 3.1 mph E5.0 kmh E 8.3 mph13.4 kmh 30.44 in1030.8 mb 0.00 in0.0 mm 0.00 in0.0 mm 0.00 in0.0 mm
11:30 AM 53.6°F12.0°C 35.4°F1.9°C 50% 2.2 mph SSE3.5 kmh SSE 7.6 mph12.2 kmh 30.42 in1030.1 mb 0.00 in0.0 mm 0.00 in0.0 mm 0.00 in0.0 mm
11:00 AM 53.6°F12.0°C 35.4°F1.9°C 50% 5.4 mph E8.7 kmh E 11.4 mph18.3 kmh 30.42 in1030.1 mb 0.00 in0.0 mm 0.00 in0.0 mm 0.00 in0.0 mm
10:30 AM 52.0°F11.1°C 34.9°F1.6°C 52% 6.0 mph E9.7 kmh E 10.7 mph17.2 kmh 30.42 in1030.1 mb 0.00 in0.0 mm 0.00 in0.0 mm 0.00 in0.0 mm
10:00 AM 51.4°F10.8°C 36.3°F2.4°C 56% 5.4 mph NE8.7 kmh NE 8.3 mph13.4 kmh 30.41 in1029.8 mb 0.00 in0.0 mm 0.00 in0.0 mm 0.00 in0.0 mm
09:30 AM 50.5°F10.3°C 38.0°F3.3°C 62% 3.1 mph NNW5.0 kmh NNW 10.7 mph17.2 kmh 30.40 in1029.5 mb 0.00 in0.0 mm 0.00 in0.0 mm 0.00 in0.0 mm
09:00 AM 48.4°F9.1°C 39.1°F3.9°C 70% 4.5 mph SE7.2 kmh SE 9.8 mph15.8 kmh 30.39 in1029.1 mb 0.00 in0.0 mm 0.00 in0.0 mm 0.00 in0.0 mm
08:30 AM 46.0°F7.8°C 37.9°F3.3°C 73% 2.2 mph N3.5 kmh N 9.8 mph15.8 kmh 30.38 in1028.8 mb 0.00 in0.0 mm 0.00 in0.0 mm 0.00 in0.0 mm
08:00 AM 45.7°F7.6°C 38.2°F3.4°C 75% 2.2 mph SE3.5 kmh SE 7.6 mph12.2 kmh 30.36 in1028.1 mb 0.00 in0.0 mm 0.00 in0.0 mm 0.00 in0.0 mm
07:30 AM 43.5°F6.4°C 39.3°F4.1°C 85% 6.0 mph S9.7 kmh S 11.4 mph18.3 kmh 30.35 in1027.8 mb 0.00 in0.0 mm 0.00 in0.0 mm 0.00 in0.0 mm
07:00 AM 42.3°F5.7°C 39.0°F3.9°C 88% 4.5 mph SSW7.2 kmh SSW 9.8 mph15.8 kmh 30.33 in1027.1 mb 0.00 in0.0 mm 0.00 in0.0 mm 0.00 in0.0 mm
06:30 AM 42.1°F5.6°C 39.1°F3.9°C 89% 4.5 mph S7.2 kmh S 13.0 mph20.9 kmh 30.32 in1026.8 mb 0.00 in0.0 mm 0.00 in0.0 mm 0.00 in0.0 mm
06:00 AM 42.1°F5.6°C 39.1°F3.9°C 89% 2.2 mph SW3.5 kmh SW 10.7 mph17.2 kmh 30.31 in1026.4 mb 0.00 in0.0 mm 0.00 in0.0 mm 0.00 in0.0 mm
05:30 AM 42.1°F5.6°C 39.1°F3.9°C 89% 6.0 mph SW9.7 kmh SW 9.8 mph15.8 kmh 30.30 in1026.1 mb 0.00 in0.0 mm 0.00 in0.0 mm 0.00 in0.0 mm
05:00 AM 42.4°F5.8°C 38.9°F3.8°C 87% 6.0 mph S9.7 kmh S 9.2 mph14.8 kmh 30.29 in1025.7 mb 0.00 in0.0 mm 0.00 in0.0 mm 0.00 in0.0 mm
04:30 AM 43.0°F6.1°C 38.8°F3.8°C 85% 3.8 mph SW6.1 kmh SW 10.7 mph17.2 kmh 30.27 in1025.1 mb 0.00 in0.0 mm 0.00 in0.0 mm 0.00 in0.0 mm
04:00 AM 43.3°F6.3°C 38.8°F3.8°C 84% 3.8 mph SW6.1 kmh SW 7.6 mph12.2 kmh 30.26 in1024.7 mb 0.00 in0.0 mm 0.00 in0.0 mm 0.00 in0.0 mm
03:30 AM 43.7°F6.5°C 39.2°F4.0°C 84% 4.5 mph WSW7.2 kmh WSW 10.7 mph17.2 kmh 30.26 in1024.7 mb 0.00 in0.0 mm 0.00 in0.0 mm 0.00 in0.0 mm
03:00 AM 43.9°F6.6°C 39.4°F4.1°C 84% 3.8 mph N6.1 kmh N 11.4 mph18.3 kmh 30.25 in1024.4 mb 0.00 in0.0 mm 0.00 in0.0 mm 0.00 in0.0 mm
02:30 AM 43.9°F6.6°C 39.1°F3.9°C 83% 4.5 mph SW7.2 kmh SW 9.8 mph15.8 kmh 30.24 in1024.0 mb 0.00 in0.0 mm 0.00 in0.0 mm 0.00 in0.0 mm
02:00 AM 44.1°F6.7°C 39.2°F4.0°C 83% 5.4 mph WNW8.7 kmh WNW 9.2 mph14.8 kmh 30.23 in1023.7 mb 0.00 in0.0 mm 0.00 in0.0 mm 0.00 in0.0 mm
01:30 AM 44.2°F6.8°C 39.4°F4.1°C 83% 7.6 mph WSW12.2 kmh WSW 10.7 mph17.2 kmh 30.23 in1023.7 mb 0.00 in0.0 mm 0.00 in0.0 mm 0.00 in0.0 mm
01:00 AM 44.4°F6.9°C 40.2°F4.6°C 85% 3.1 mph SSW5.0 kmh SSW 9.2 mph14.8 kmh 30.22 in1023.4 mb 0.00 in0.0 mm 0.00 in0.0 mm 0.00 in0.0 mm
12:30 AM 44.8°F7.1°C 40.9°F4.9°C 86% 3.8 mph SE6.1 kmh SE 8.3 mph13.4 kmh 30.21 in1023.0 mb 0.00 in0.0 mm 0.00 in0.0 mm 0.00 in0.0 mm
12:00 AM 45.0°F7.2°C 41.3°F5.2°C 87% 6.9 mph W11.1 kmh W 10.7 mph17.2 kmh 30.20 in1022.7 mb 0.00 in0.0 mm 0.00 in0.0 mm 0.00 in0.0 mm